sensor_id;sensor_type;location;lat;lon;timestamp;P1;P2;P0
13030;PMS7003;6582;54.644;9.760;2022-12-26T00:00:05;93.9;82.1;
13030;PMS7003;6582;54.644;9.760;2022-12-26T00:05:03;96.0;84.9;
13030;PMS7003;6582;54.644;9.760;2022-12-26T00:10:07;97.9;88.2;
13030;PMS7003;6582;54.644;9.760;2022-12-26T00:15:02;100.6;92.1;
13030;PMS7003;6582;54.644;9.760;2022-12-26T00:20:03;102.2;93.8;
13030;PMS7003;6582;54.644;9.760;2022-12-26T00:25:03;104.3;96.7;
13030;PMS7003;6582;54.644;9.760;2022-12-26T00:30:02;100.4;92.2;
13030;PMS7003;6582;54.644;9.760;2022-12-26T00:35:02;96.0;85.4;
13030;PMS7003;6582;54.644;9.760;2022-12-26T00:40:02;91.4;79.3;
13030;PMS7003;6582;54.644;9.760;2022-12-26T00:45:02;87.8;75.1;
13030;PMS7003;6582;54.644;9.760;2022-12-26T00:50:21;85.7;71.0;
13030;PMS7003;6582;54.644;9.760;2022-12-26T00:55:03;86.8;72.0;
13030;PMS7003;6582;54.644;9.760;2022-12-26T01:00:07;88.2;73.5;
13030;PMS7003;6582;54.644;9.760;2022-12-26T01:05:02;89.3;74.3;
13030;PMS7003;6582;54.644;9.760;2022-12-26T01:10:03;91.0;76.4;
13030;PMS7003;6582;54.644;9.760;2022-12-26T01:15:07;89.7;74.9;
13030;PMS7003;6582;54.644;9.760;2022-12-26T01:20:02;90.3;75.4;
13030;PMS7003;6582;54.644;9.760;2022-12-26T01:25:02;89.4;74.3;
13030;PMS7003;6582;54.644;9.760;2022-12-26T01:30:02;90.5;75.8;
13030;PMS7003;6582;54.644;9.760;2022-12-26T01:35:07;89.2;74.4;
13030;PMS7003;6582;54.644;9.760;2022-12-26T01:40:02;90.8;76.7;
13030;PMS7003;6582;54.644;9.760;2022-12-26T01:45:04;91.6;77.6;
13030;PMS7003;6582;54.644;9.760;2022-12-26T01:50:11;93.0;79.6;
13030;PMS7003;6582;54.644;9.760;2022-12-26T01:55:02;93.3;79.8;
13030;PMS7003;6582;54.644;9.760;2022-12-26T02:00:02;93.7;79.7;
13030;PMS7003;6582;54.644;9.760;2022-12-26T02:05:02;92.5;78.4;
13030;PMS7003;6582;54.644;9.760;2022-12-26T02:10:02;92.6;78.9;
13030;PMS7003;6582;54.644;9.760;2022-12-26T02:15:04;92.6;78.2;
13030;PMS7003;6582;54.644;9.760;2022-12-26T02:20:13;90.8;76.4;
13030;PMS7003;6582;54.644;9.760;2022-12-26T02:30:22;88.2;74.0;
13030;PMS7003;6582;54.644;9.760;2022-12-26T02:35:09;85.8;71.2;
13030;PMS7003;6582;54.644;9.760;2022-12-26T02:40:17;83.3;68.9;
13030;PMS7003;6582;54.644;9.760;2022-12-26T02:45:06;82.9;68.3;
13030;PMS7003;6582;54.644;9.760;2022-12-26T02:50:18;83.4;68.2;
13030;PMS7003;6582;54.644;9.760;2022-12-26T03:05:03;88.8;73.4;
13030;PMS7003;6582;54.644;9.760;2022-12-26T03:10:03;90.6;76.0;
13030;PMS7003;6582;54.644;9.760;2022-12-26T03:15:03;90.2;75.6;
13030;PMS7003;6582;54.644;9.760;2022-12-26T03:25:04;90.1;75.1;
13030;PMS7003;6582;54.644;9.760;2022-12-26T03:30:03;89.2;74.5;
13030;PMS7003;6582;54.644;9.760;2022-12-26T03:35:04;88.2;73.0;
13030;PMS7003;6582;54.644;9.760;2022-12-26T03:40:07;86.0;71.0;
13030;PMS7003;6582;54.644;9.760;2022-12-26T03:45:23;84.4;69.5;
13030;PMS7003;6582;54.644;9.760;2022-12-26T04:10:05;85.6;70.2;
13030;PMS7003;6582;54.644;9.760;2022-12-26T04:15:04;88.3;72.8;
13030;PMS7003;6582;54.644;9.760;2022-12-26T04:20:09;87.1;71.6;
13030;PMS7003;6582;54.644;9.760;2022-12-26T04:25:14;88.0;72.5;
13030;PMS7003;6582;54.644;9.760;2022-12-26T04:30:02;88.6;73.1;
13030;PMS7003;6582;54.644;9.760;2022-12-26T05:00:07;79.2;65.2;
13030;PMS7003;6582;54.644;9.760;2022-12-26T05:05:02;78.7;65.3;
13030;PMS7003;6582;54.644;9.760;2022-12-26T05:10:11;79.5;65.3;
13030;PMS7003;6582;54.644;9.760;2022-12-26T05:15:07;80.1;65.7;
13030;PMS7003;6582;54.644;9.760;2022-12-26T05:20:04;81.2;66.5;
13030;PMS7003;6582;54.644;9.760;2022-12-26T05:25:03;82.2;67.2;
13030;PMS7003;6582;54.644;9.760;2022-12-26T05:30:02;83.2;68.0;
13030;PMS7003;6582;54.644;9.760;2022-12-26T05:35:02;83.8;68.6;
13030;PMS7003;6582;54.644;9.760;2022-12-26T05:40:02;84.2;69.0;
13030;PMS7003;6582;54.644;9.760;2022-12-26T05:45:07;84.1;69.2;
13030;PMS7003;6582;54.644;9.760;2022-12-26T05:50:02;84.0;69.1;
13030;PMS7003;6582;54.644;9.760;2022-12-26T05:55:02;85.1;70.0;
13030;PMS7003;6582;54.644;9.760;2022-12-26T06:00:02;85.6;70.4;
13030;PMS7003;6582;54.644;9.760;2022-12-26T06:05:02;86.9;71.5;
13030;PMS7003;6582;54.644;9.760;2022-12-26T06:10:02;86.8;71.5;
13030;PMS7003;6582;54.644;9.760;2022-12-26T06:15:07;85.1;70.2;
13030;PMS7003;6582;54.644;9.760;2022-12-26T06:20:03;83.2;68.7;
13030;PMS7003;6582;54.644;9.760;2022-12-26T06:25:04;81.2;67.3;
13030;PMS7003;6582;54.644;9.760;2022-12-26T06:30:02;79.0;65.3;
13030;PMS7003;6582;54.644;9.760;2022-12-26T06:35:02;78.0;64.6;
13030;PMS7003;6582;54.644;9.760;2022-12-26T06:40:02;79.9;66.1;
13030;PMS7003;6582;54.644;9.760;2022-12-26T06:45:07;80.7;66.5;
13030;PMS7003;6582;54.644;9.760;2022-12-26T06:50:07;82.6;68.2;
13030;PMS7003;6582;54.644;9.760;2022-12-26T07:00:02;84.0;69.6;
13030;PMS7003;6582;54.644;9.760;2022-12-26T07:05:09;85.5;71.0;
13030;PMS7003;6582;54.644;9.760;2022-12-26T07:10:03;87.8;73.6;
13030;PMS7003;6582;54.644;9.760;2022-12-26T07:15:06;85.8;71.8;
13030;PMS7003;6582;54.644;9.760;2022-12-26T07:20:03;86.2;72.3;
13030;PMS7003;6582;54.644;9.760;2022-12-26T07:25:07;84.2;70.6;
13030;PMS7003;6582;54.644;9.760;2022-12-26T07:30:03;82.0;68.4;
13030;PMS7003;6582;54.644;9.760;2022-12-26T07:35:13;79.2;65.1;
13030;PMS7003;6582;54.644;9.760;2022-12-26T07:40:02;79.6;65.0;
13030;PMS7003;6582;54.644;9.760;2022-12-26T07:45:02;79.6;64.8;
13030;PMS7003;6582;54.644;9.760;2022-12-26T07:50:02;80.5;65.5;
13030;PMS7003;6582;54.644;9.760;2022-12-26T07:55:02;79.9;65.0;
13030;PMS7003;6582;54.644;9.760;2022-12-26T08:00:03;80.1;65.5;
13030;PMS7003;6582;54.644;9.760;2022-12-26T08:05:02;82.0;67.2;
13030;PMS7003;6582;54.644;9.760;2022-12-26T08:10:01;81.9;67.3;
13030;PMS7003;6582;54.644;9.760;2022-12-26T08:15:10;83.0;68.1;
13030;PMS7003;6582;54.644;9.760;2022-12-26T08:20:07;84.9;69.6;
13030;PMS7003;6582;54.644;9.760;2022-12-26T08:25:02;85.3;70.0;
13030;PMS7003;6582;54.644;9.760;2022-12-26T08:30:02;85.8;70.4;
13030;PMS7003;6582;54.644;9.760;2022-12-26T08:35:07;85.9;70.4;
13030;PMS7003;6582;54.644;9.760;2022-12-26T08:40:07;85.5;70.0;
13030;PMS7003;6582;54.644;9.760;2022-12-26T08:45:07;82.2;67.8;
13030;PMS7003;6582;54.644;9.760;2022-12-26T08:50:06;83.6;69.2;
13030;PMS7003;6582;54.644;9.760;2022-12-26T08:55:08;80.6;66.6;
13030;PMS7003;6582;54.644;9.760;2022-12-26T09:00:07;80.3;66.4;
13030;PMS7003;6582;54.644;9.760;2022-12-26T09:05:02;77.9;64.4;
13030;PMS7003;6582;54.644;9.760;2022-12-26T09:10:03;78.4;64.8;
13030;PMS7003;6582;54.644;9.760;2022-12-26T09:15:19;75.0;61.6;
13030;PMS7003;6582;54.644;9.760;2022-12-26T09:20:03;75.7;62.4;
13030;PMS7003;6582;54.644;9.760;2022-12-26T09:25:08;75.2;61.8;
13030;PMS7003;6582;54.644;9.760;2022-12-26T09:30:06;75.0;61.9;
13030;PMS7003;6582;54.644;9.760;2022-12-26T09:35:07;75.8;62.7;
13030;PMS7003;6582;54.644;9.760;2022-12-26T09:40:02;76.3;63.1;
13030;PMS7003;6582;54.644;9.760;2022-12-26T09:45:05;76.0;62.8;
13030;PMS7003;6582;54.644;9.760;2022-12-26T09:50:13;77.0;63.8;
13030;PMS7003;6582;54.644;9.760;2022-12-26T09:55:18;78.3;64.8;
13030;PMS7003;6582;54.644;9.760;2022-12-26T11:00:06;77.4;64.2;
13030;PMS7003;6582;54.644;9.760;2022-12-26T11:05:16;72.9;60.7;
13030;PMS7003;6582;54.644;9.760;2022-12-26T11:50:04;71.0;58.6;
13030;PMS7003;6582;54.644;9.760;2022-12-26T13:00:16;63.4;54.4;
13030;PMS7003;6582;54.644;9.760;2022-12-26T13:05:04;66.1;56.3;
13030;PMS7003;6582;54.644;9.760;2022-12-26T13:10:03;69.1;58.2;
13030;PMS7003;6582;54.644;9.760;2022-12-26T13:15:06;70.8;59.5;
13030;PMS7003;6582;54.644;9.760;2022-12-26T13:20:14;72.1;60.6;
13030;PMS7003;6582;54.644;9.760;2022-12-26T13:25:03;75.7;63.1;
13030;PMS7003;6582;54.644;9.760;2022-12-26T13:30:11;76.3;63.6;
13030;PMS7003;6582;54.644;9.760;2022-12-26T13:35:03;76.1;63.5;
13030;PMS7003;6582;54.644;9.760;2022-12-26T13:40:02;76.2;63.5;
13030;PMS7003;6582;54.644;9.760;2022-12-26T14:00:22;75.4;62.6;
13030;PMS7003;6582;54.644;9.760;2022-12-26T14:05:11;70.4;59.1;
13030;PMS7003;6582;54.644;9.760;2022-12-26T14:10:12;53.0;45.5;
13030;PMS7003;6582;54.644;9.760;2022-12-26T14:15:15;60.0;51.3;
13030;PMS7003;6582;54.644;9.760;2022-12-26T15:00:13;67.4;58.0;
13030;PMS7003;6582;54.644;9.760;2022-12-26T15:05:09;68.7;59.2;
13030;PMS7003;6582;54.644;9.760;2022-12-26T15:10:07;79.4;69.4;
13030;PMS7003;6582;54.644;9.760;2022-12-26T15:50:06;220.0;220.0;
13030;PMS7003;6582;54.644;9.760;2022-12-26T17:00:02;153.0;153.0;
13030;PMS7003;6582;54.644;9.760;2022-12-26T17:05:03;150.2;150.2;
13030;PMS7003;6582;54.644;9.760;2022-12-26T17:30:18;109.0;103.4;
13030;PMS7003;6582;54.644;9.760;2022-12-26T17:50:02;106.2;95.2;
13030;PMS7003;6582;54.644;9.760;2022-12-26T17:55:02;108.2;99.1;
13030;PMS7003;6582;54.644;9.760;2022-12-26T18:00:05;108.7;100.1;
13030;PMS7003;6582;54.644;9.760;2022-12-26T18:05:02;106.8;96.6;
13030;PMS7003;6582;54.644;9.760;2022-12-26T18:10:02;106.7;96.7;
13030;PMS7003;6582;54.644;9.760;2022-12-26T18:15:07;104.3;93.4;
13030;PMS7003;6582;54.644;9.760;2022-12-26T18:20:20;102.4;90.4;
13030;PMS7003;6582;54.644;9.760;2022-12-26T18:25:02;99.9;86.3;
13030;PMS7003;6582;54.644;9.760;2022-12-26T18:30:02;100.6;87.8;
13030;PMS7003;6582;54.644;9.760;2022-12-26T18:35:02;100.5;87.8;
13030;PMS7003;6582;54.644;9.760;2022-12-26T18:40:03;102.3;90.3;
13030;PMS7003;6582;54.644;9.760;2022-12-26T18:45:09;103.2;91.8;
13030;PMS7003;6582;54.644;9.760;2022-12-26T18:50:07;104.1;93.5;
13030;PMS7003;6582;54.644;9.760;2022-12-26T18:55:02;104.3;93.4;
13030;PMS7003;6582;54.644;9.760;2022-12-26T19:00:02;111.5;102.4;
13030;PMS7003;6582;54.644;9.760;2022-12-26T19:05:02;114.2;106.8;
13030;PMS7003;6582;54.644;9.760;2022-12-26T19:10:02;115.5;108.4;
13030;PMS7003;6582;54.644;9.760;2022-12-26T19:15:02;124.6;120.0;
13030;PMS7003;6582;54.644;9.760;2022-12-26T19:20:05;130.2;127.7;
13030;PMS7003;6582;54.644;9.760;2022-12-26T19:25:02;125.1;122.4;
13030;PMS7003;6582;54.644;9.760;2022-12-26T19:30:03;136.2;134.1;
13030;PMS7003;6582;54.644;9.760;2022-12-26T19:35:02;135.1;133.0;
13030;PMS7003;6582;54.644;9.760;2022-12-26T19:40:09;128.0;125.2;
13030;PMS7003;6582;54.644;9.760;2022-12-26T19:45:02;126.3;123.4;
13030;PMS7003;6582;54.644;9.760;2022-12-26T19:50:04;126.7;123.8;
13030;PMS7003;6582;54.644;9.760;2022-12-26T19:55:04;116.7;113.7;
13030;PMS7003;6582;54.644;9.760;2022-12-26T20:00:02;119.8;118.3;
13030;PMS7003;6582;54.644;9.760;2022-12-26T20:05:07;120.7;120.0;
13030;PMS7003;6582;54.644;9.760;2022-12-26T20:10:02;117.8;115.9;
13030;PMS7003;6582;54.644;9.760;2022-12-26T20:15:08;127.6;125.3;
13030;PMS7003;6582;54.644;9.760;2022-12-26T20:20:02;132.3;130.0;
13030;PMS7003;6582;54.644;9.760;2022-12-26T20:25:07;133.7;131.4;
13030;PMS7003;6582;54.644;9.760;2022-12-26T20:30:09;133.1;130.5;
13030;PMS7003;6582;54.644;9.760;2022-12-26T20:35:02;140.9;139.8;
13030;PMS7003;6582;54.644;9.760;2022-12-26T20:40:03;141.3;141.0;
13030;PMS7003;6582;54.644;9.760;2022-12-26T20:45:03;148.6;148.3;
13030;PMS7003;6582;54.644;9.760;2022-12-26T20:50:01;148.9;148.6;
13030;PMS7003;6582;54.644;9.760;2022-12-26T20:55:02;172.4;172.4;
13030;PMS7003;6582;54.644;9.760;2022-12-26T21:00:02;169.6;169.6;
13030;PMS7003;6582;54.644;9.760;2022-12-26T21:05:02;168.1;168.0;
13030;PMS7003;6582;54.644;9.760;2022-12-26T21:10:02;169.1;169.0;
13030;PMS7003;6582;54.644;9.760;2022-12-26T21:15:02;171.8;171.4;
13030;PMS7003;6582;54.644;9.760;2022-12-26T21:20:02;148.2;147.3;
13030;PMS7003;6582;54.644;9.760;2022-12-26T21:25:03;145.0;143.7;
13030;PMS7003;6582;54.644;9.760;2022-12-26T21:50:02;149.2;149.2;
13030;PMS7003;6582;54.644;9.760;2022-12-26T21:55:01;145.6;144.6;
13030;PMS7003;6582;54.644;9.760;2022-12-26T22:00:01;152.7;152.1;
13030;PMS7003;6582;54.644;9.760;2022-12-26T22:05:01;155.0;154.5;
13030;PMS7003;6582;54.644;9.760;2022-12-26T22:10:02;146.0;143.2;
13030;PMS7003;6582;54.644;9.760;2022-12-26T22:15:03;157.1;154.3;
13030;PMS7003;6582;54.644;9.760;2022-12-26T22:20:04;165.9;163.4;
13030;PMS7003;6582;54.644;9.760;2022-12-26T22:40:03;154.0;153.6;
13030;PMS7003;6582;54.644;9.760;2022-12-26T22:45:02;146.1;145.0;
13030;PMS7003;6582;54.644;9.760;2022-12-26T22:50:03;136.5;135.4;
13030;PMS7003;6582;54.644;9.760;2022-12-26T22:55:07;122.6;118.8;
13030;PMS7003;6582;54.644;9.760;2022-12-26T23:00:12;121.2;117.4;
13030;PMS7003;6582;54.644;9.760;2022-12-26T23:05:08;116.8;113.0;
13030;PMS7003;6582;54.644;9.760;2022-12-26T23:10:03;112.0;107.3;
13030;PMS7003;6582;54.644;9.760;2022-12-26T23:15:02;111.0;104.9;
13030;PMS7003;6582;54.644;9.760;2022-12-26T23:20:02;117.7;112.7;
13030;PMS7003;6582;54.644;9.760;2022-12-26T23:25:02;114.2;106.9;
13030;PMS7003;6582;54.644;9.760;2022-12-26T23:30:02;110.2;101.0;
13030;PMS7003;6582;54.644;9.760;2022-12-26T23:35:02;107.5;96.6;
13030;PMS7003;6582;54.644;9.760;2022-12-26T23:40:02;108.4;97.7;
13030;PMS7003;6582;54.644;9.760;2022-12-26T23:45:02;106.6;94.5;
13030;PMS7003;6582;54.644;9.760;2022-12-26T23:50:03;109.9;99.8;
13030;PMS7003;6582;54.644;9.760;2022-12-26T23:55:02;110.2;100.4;
